sensor_id;sensor_type;location;lat;lon;timestamp;P1;durP1;ratioP1;P2;durP2;ratioP2
52057;SDS011;38063;53.210;6.504;2023-03-14T00:00:14;27.08;;;4.68;;
52057;SDS011;38063;53.210;6.504;2023-03-14T00:05:06;26.48;;;3.92;;
52057;SDS011;38063;53.210;6.504;2023-03-14T00:07:36;23.88;;;4.40;;
52057;SDS011;38063;53.210;6.504;2023-03-14T00:10:04;24.88;;;4.15;;
52057;SDS011;38063;53.210;6.504;2023-03-14T00:12:31;27.98;;;4.30;;
52057;SDS011;38063;53.210;6.504;2023-03-14T00:14:57;26.80;;;4.78;;
52057;SDS011;38063;53.210;6.504;2023-03-14T00:17:25;30.65;;;4.38;;
52057;SDS011;38063;53.210;6.504;2023-03-14T00:19:51;25.60;;;4.07;;
52057;SDS011;38063;53.210;6.504;2023-03-14T00:22:19;18.30;;;4.53;;
52057;SDS011;38063;53.210;6.504;2023-03-14T00:24:45;21.02;;;3.88;;
52057;SDS011;38063;53.210;6.504;2023-03-14T00:27:11;24.15;;;4.35;;
52057;SDS011;38063;53.210;6.504;2023-03-14T00:29:36;25.40;;;4.47;;
52057;SDS011;38063;53.210;6.504;2023-03-14T00:32:02;20.00;;;4.45;;
52057;SDS011;38063;53.210;6.504;2023-03-14T00:34:28;19.30;;;3.65;;
52057;SDS011;38063;53.210;6.504;2023-03-14T00:36:55;20.92;;;4.10;;
52057;SDS011;38063;53.210;6.504;2023-03-14T00:39:20;25.50;;;4.32;;
52057;SDS011;38063;53.210;6.504;2023-03-14T00:41:46;20.73;;;4.30;;
52057;SDS011;38063;53.210;6.504;2023-03-14T00:44:12;22.98;;;4.07;;
52057;SDS011;38063;53.210;6.504;2023-03-14T00:46:38;19.15;;;3.92;;
52057;SDS011;38063;53.210;6.504;2023-03-14T00:49:06;20.35;;;3.83;;
52057;SDS011;38063;53.210;6.504;2023-03-14T00:51:32;17.40;;;3.78;;
52057;SDS011;38063;53.210;6.504;2023-03-14T00:53:59;27.83;;;5.22;;
52057;SDS011;38063;53.210;6.504;2023-03-14T00:56:25;17.38;;;4.32;;
52057;SDS011;38063;53.210;6.504;2023-03-14T00:58:53;18.98;;;3.78;;
52057;SDS011;38063;53.210;6.504;2023-03-14T01:01:20;20.27;;;4.20;;
52057;SDS011;38063;53.210;6.504;2023-03-14T01:03:46;21.00;;;4.47;;
52057;SDS011;38063;53.210;6.504;2023-03-14T01:08:38;22.08;;;4.15;;
52057;SDS011;38063;53.210;6.504;2023-03-14T01:14:00;21.13;;;3.72;;
52057;SDS011;38063;53.210;6.504;2023-03-14T01:16:27;22.05;;;4.15;;
52057;SDS011;38063;53.210;6.504;2023-03-14T01:18:54;19.80;;;4.07;;
52057;SDS011;38063;53.210;6.504;2023-03-14T01:21:24;11.65;;;3.13;;
52057;SDS011;38063;53.210;6.504;2023-03-14T01:23:52;22.05;;;4.05;;
52057;SDS011;38063;53.210;6.504;2023-03-14T01:26:20;20.35;;;3.72;;
52057;SDS011;38063;53.210;6.504;2023-03-14T01:28:48;16.63;;;3.33;;
52057;SDS011;38063;53.210;6.504;2023-03-14T01:31:15;22.23;;;4.10;;
52057;SDS011;38063;53.210;6.504;2023-03-14T01:33:41;22.33;;;4.03;;
52057;SDS011;38063;53.210;6.504;2023-03-14T01:36:07;15.10;;;4.10;;
52057;SDS011;38063;53.210;6.504;2023-03-14T01:38:34;19.58;;;3.70;;
52057;SDS011;38063;53.210;6.504;2023-03-14T01:41:01;22.38;;;3.72;;
52057;SDS011;38063;53.210;6.504;2023-03-14T01:43:28;17.90;;;2.80;;
52057;SDS011;38063;53.210;6.504;2023-03-14T01:48:39;13.77;;;3.15;;
52057;SDS011;38063;53.210;6.504;2023-03-14T01:51:11;17.92;;;2.72;;
52057;SDS011;38063;53.210;6.504;2023-03-14T01:53:41;13.23;;;3.38;;
52057;SDS011;38063;53.210;6.504;2023-03-14T01:56:09;12.50;;;3.13;;
52057;SDS011;38063;53.210;6.504;2023-03-14T01:58:39;15.35;;;2.97;;
52057;SDS011;38063;53.210;6.504;2023-03-14T02:01:06;17.42;;;3.10;;
52057;SDS011;38063;53.210;6.504;2023-03-14T02:03:36;14.45;;;3.08;;
52057;SDS011;38063;53.210;6.504;2023-03-14T02:06:09;17.75;;;2.85;;
52057;SDS011;38063;53.210;6.504;2023-03-14T02:08:36;11.93;;;3.38;;
52057;SDS011;38063;53.210;6.504;2023-03-14T02:11:03;12.25;;;2.13;;
52057;SDS011;38063;53.210;6.504;2023-03-14T02:13:29;19.85;;;3.10;;
52057;SDS011;38063;53.210;6.504;2023-03-14T02:15:55;13.18;;;2.97;;
52057;SDS011;38063;53.210;6.504;2023-03-14T02:18:20;14.30;;;2.83;;
52057;SDS011;38063;53.210;6.504;2023-03-14T02:20:52;14.70;;;3.33;;
52057;SDS011;38063;53.210;6.504;2023-03-14T02:23:23;13.82;;;2.90;;
52057;SDS011;38063;53.210;6.504;2023-03-14T02:26:07;9.93;;;2.20;;
52057;SDS011;38063;53.210;6.504;2023-03-14T02:28:40;12.50;;;2.22;;
52057;SDS011;38063;53.210;6.504;2023-03-14T02:31:06;12.07;;;2.25;;
52057;SDS011;38063;53.210;6.504;2023-03-14T02:33:33;17.88;;;3.30;;
52057;SDS011;38063;53.210;6.504;2023-03-14T02:36:03;11.55;;;2.60;;
52057;SDS011;38063;53.210;6.504;2023-03-14T02:41:17;13.38;;;3.22;;
52057;SDS011;38063;53.210;6.504;2023-03-14T02:43:42;17.10;;;3.15;;
52057;SDS011;38063;53.210;6.504;2023-03-14T02:46:16;18.77;;;2.63;;
52057;SDS011;38063;53.210;6.504;2023-03-14T02:48:49;16.25;;;2.50;;
52057;SDS011;38063;53.210;6.504;2023-03-14T02:51:19;16.80;;;2.85;;
52057;SDS011;38063;53.210;6.504;2023-03-14T02:53:46;11.57;;;2.63;;
52057;SDS011;38063;53.210;6.504;2023-03-14T02:56:11;13.13;;;2.80;;
52057;SDS011;38063;53.210;6.504;2023-03-14T02:58:38;10.18;;;2.17;;
52057;SDS011;38063;53.210;6.504;2023-03-14T03:01:04;10.98;;;2.53;;
52057;SDS011;38063;53.210;6.504;2023-03-14T03:03:30;14.10;;;3.00;;
52057;SDS011;38063;53.210;6.504;2023-03-14T03:05:56;14.43;;;3.42;;
52057;SDS011;38063;53.210;6.504;2023-03-14T03:08:23;11.43;;;3.10;;
52057;SDS011;38063;53.210;6.504;2023-03-14T03:10:51;17.75;;;3.22;;
52057;SDS011;38063;53.210;6.504;2023-03-14T03:13:17;15.60;;;2.88;;
52057;SDS011;38063;53.210;6.504;2023-03-14T03:15:43;13.65;;;3.45;;
52057;SDS011;38063;53.210;6.504;2023-03-14T03:18:09;18.90;;;3.30;;
52057;SDS011;38063;53.210;6.504;2023-03-14T03:20:35;13.70;;;3.28;;
52057;SDS011;38063;53.210;6.504;2023-03-14T03:23:01;18.30;;;3.65;;
52057;SDS011;38063;53.210;6.504;2023-03-14T03:25:27;15.68;;;3.22;;
52057;SDS011;38063;53.210;6.504;2023-03-14T03:27:53;15.18;;;3.38;;
52057;SDS011;38063;53.210;6.504;2023-03-14T03:30:18;18.33;;;4.63;;
52057;SDS011;38063;53.210;6.504;2023-03-14T03:32:44;14.57;;;3.63;;
52057;SDS011;38063;53.210;6.504;2023-03-14T03:35:11;19.33;;;4.03;;
52057;SDS011;38063;53.210;6.504;2023-03-14T03:37:37;11.82;;;3.30;;
52057;SDS011;38063;53.210;6.504;2023-03-14T03:40:03;18.95;;;3.55;;
52057;SDS011;38063;53.210;6.504;2023-03-14T03:42:32;11.88;;;3.65;;
52057;SDS011;38063;53.210;6.504;2023-03-14T03:44:59;16.63;;;3.92;;
52057;SDS011;38063;53.210;6.504;2023-03-14T03:47:25;14.10;;;4.03;;
52057;SDS011;38063;53.210;6.504;2023-03-14T03:49:51;13.48;;;3.53;;
52057;SDS011;38063;53.210;6.504;2023-03-14T03:52:20;14.32;;;3.90;;
52057;SDS011;38063;53.210;6.504;2023-03-14T03:54:45;18.98;;;3.80;;
52057;SDS011;38063;53.210;6.504;2023-03-14T03:57:11;20.00;;;3.97;;
52057;SDS011;38063;53.210;6.504;2023-03-14T03:59:37;20.63;;;4.38;;
52057;SDS011;38063;53.210;6.504;2023-03-14T04:02:05;15.27;;;4.75;;
52057;SDS011;38063;53.210;6.504;2023-03-14T04:04:30;17.10;;;3.97;;
52057;SDS011;38063;53.210;6.504;2023-03-14T04:06:56;21.58;;;4.70;;
52057;SDS011;38063;53.210;6.504;2023-03-14T04:09:22;17.45;;;4.43;;
52057;SDS011;38063;53.210;6.504;2023-03-14T04:11:47;19.60;;;4.45;;
52057;SDS011;38063;53.210;6.504;2023-03-14T04:14:13;20.83;;;4.30;;
52057;SDS011;38063;53.210;6.504;2023-03-14T04:16:39;20.13;;;4.38;;
52057;SDS011;38063;53.210;6.504;2023-03-14T04:19:05;21.63;;;4.22;;
52057;SDS011;38063;53.210;6.504;2023-03-14T04:21:30;21.33;;;5.07;;
52057;SDS011;38063;53.210;6.504;2023-03-14T04:23:56;20.65;;;4.25;;
52057;SDS011;38063;53.210;6.504;2023-03-14T04:26:21;23.55;;;4.63;;
52057;SDS011;38063;53.210;6.504;2023-03-14T04:28:47;18.48;;;4.45;;
52057;SDS011;38063;53.210;6.504;2023-03-14T04:31:17;20.55;;;5.18;;
52057;SDS011;38063;53.210;6.504;2023-03-14T04:33:44;21.15;;;4.68;;
52057;SDS011;38063;53.210;6.504;2023-03-14T04:36:10;22.50;;;5.25;;
52057;SDS011;38063;53.210;6.504;2023-03-14T04:38:36;23.17;;;5.78;;
52057;SDS011;38063;53.210;6.504;2023-03-14T04:41:02;22.92;;;5.10;;
52057;SDS011;38063;53.210;6.504;2023-03-14T04:43:28;19.88;;;6.97;;
52057;SDS011;38063;53.210;6.504;2023-03-14T04:45:54;19.65;;;5.50;;
52057;SDS011;38063;53.210;6.504;2023-03-14T04:48:21;19.52;;;6.38;;
52057;SDS011;38063;53.210;6.504;2023-03-14T04:50:47;22.25;;;6.50;;
52057;SDS011;38063;53.210;6.504;2023-03-14T04:53:14;22.95;;;6.80;;
52057;SDS011;38063;53.210;6.504;2023-03-14T04:55:40;20.83;;;7.50;;
52057;SDS011;38063;53.210;6.504;2023-03-14T04:58:06;21.17;;;7.53;;
52057;SDS011;38063;53.210;6.504;2023-03-14T05:00:32;26.08;;;7.68;;
52057;SDS011;38063;53.210;6.504;2023-03-14T05:02:57;20.75;;;7.70;;
52057;SDS011;38063;53.210;6.504;2023-03-14T05:05:23;15.13;;;6.78;;
52057;SDS011;38063;53.210;6.504;2023-03-14T05:07:49;18.30;;;7.30;;
52057;SDS011;38063;53.210;6.504;2023-03-14T05:10:15;15.38;;;7.00;;
52057;SDS011;38063;53.210;6.504;2023-03-14T05:12:40;17.95;;;7.45;;
52057;SDS011;38063;53.210;6.504;2023-03-14T05:15:06;19.20;;;7.25;;
52057;SDS011;38063;53.210;6.504;2023-03-14T05:17:32;20.55;;;7.20;;
52057;SDS011;38063;53.210;6.504;2023-03-14T05:19:58;23.40;;;6.72;;
52057;SDS011;38063;53.210;6.504;2023-03-14T05:22:24;18.20;;;6.82;;
52057;SDS011;38063;53.210;6.504;2023-03-14T05:24:50;21.60;;;6.93;;
52057;SDS011;38063;53.210;6.504;2023-03-14T05:27:16;13.85;;;6.70;;
52057;SDS011;38063;53.210;6.504;2023-03-14T05:29:41;14.73;;;5.90;;
52057;SDS011;38063;53.210;6.504;2023-03-14T05:32:07;14.40;;;5.90;;
52057;SDS011;38063;53.210;6.504;2023-03-14T05:34:33;10.70;;;5.55;;
52057;SDS011;38063;53.210;6.504;2023-03-14T05:36:58;14.00;;;5.35;;
52057;SDS011;38063;53.210;6.504;2023-03-14T05:39:24;9.77;;;5.75;;
52057;SDS011;38063;53.210;6.504;2023-03-14T05:41:50;14.02;;;5.93;;
52057;SDS011;38063;53.210;6.504;2023-03-14T05:44:16;11.60;;;4.80;;
52057;SDS011;38063;53.210;6.504;2023-03-14T05:46:41;13.60;;;4.82;;
52057;SDS011;38063;53.210;6.504;2023-03-14T05:49:07;11.38;;;4.45;;
52057;SDS011;38063;53.210;6.504;2023-03-14T05:51:33;11.20;;;4.38;;
52057;SDS011;38063;53.210;6.504;2023-03-14T05:53:58;12.52;;;4.35;;
52057;SDS011;38063;53.210;6.504;2023-03-14T05:56:24;10.98;;;4.35;;
52057;SDS011;38063;53.210;6.504;2023-03-14T05:58:49;12.70;;;4.88;;
52057;SDS011;38063;53.210;6.504;2023-03-14T06:01:15;8.75;;;3.70;;
52057;SDS011;38063;53.210;6.504;2023-03-14T06:03:41;5.93;;;3.80;;
52057;SDS011;38063;53.210;6.504;2023-03-14T06:06:06;9.13;;;3.90;;
52057;SDS011;38063;53.210;6.504;2023-03-14T06:08:32;8.77;;;3.33;;
52057;SDS011;38063;53.210;6.504;2023-03-14T06:10:59;6.18;;;3.15;;
52057;SDS011;38063;53.210;6.504;2023-03-14T06:13:27;9.45;;;3.80;;
52057;SDS011;38063;53.210;6.504;2023-03-14T06:15:52;8.43;;;3.15;;
52057;SDS011;38063;53.210;6.504;2023-03-14T06:18:18;7.53;;;3.50;;
52057;SDS011;38063;53.210;6.504;2023-03-14T06:20:44;7.80;;;3.55;;
52057;SDS011;38063;53.210;6.504;2023-03-14T06:23:10;6.95;;;3.15;;
52057;SDS011;38063;53.210;6.504;2023-03-14T06:25:35;8.57;;;3.70;;
52057;SDS011;38063;53.210;6.504;2023-03-14T06:28:02;2.17;;;0.80;;
52057;SDS011;38063;53.210;6.504;2023-03-14T06:30:27;5.53;;;0.70;;
52057;SDS011;38063;53.210;6.504;2023-03-14T06:32:53;4.22;;;0.90;;
52057;SDS011;38063;53.210;6.504;2023-03-14T06:35:20;7.72;;;1.25;;
52057;SDS011;38063;53.210;6.504;2023-03-14T06:37:47;7.72;;;1.10;;
52057;SDS011;38063;53.210;6.504;2023-03-14T06:40:13;11.02;;;1.85;;
52057;SDS011;38063;53.210;6.504;2023-03-14T06:42:42;17.85;;;1.75;;
52057;SDS011;38063;53.210;6.504;2023-03-14T06:45:08;11.75;;;2.03;;
52057;SDS011;38063;53.210;6.504;2023-03-14T06:47:34;12.95;;;1.85;;
52057;SDS011;38063;53.210;6.504;2023-03-14T06:50:00;13.38;;;2.63;;
52057;SDS011;38063;53.210;6.504;2023-03-14T06:52:26;15.93;;;1.88;;
52057;SDS011;38063;53.210;6.504;2023-03-14T06:54:51;17.88;;;1.70;;
52057;SDS011;38063;53.210;6.504;2023-03-14T06:57:17;12.68;;;1.70;;
52057;SDS011;38063;53.210;6.504;2023-03-14T06:59:43;7.43;;;1.50;;
52057;SDS011;38063;53.210;6.504;2023-03-14T07:02:12;6.05;;;1.27;;
52057;SDS011;38063;53.210;6.504;2023-03-14T07:04:37;11.23;;;1.55;;
52057;SDS011;38063;53.210;6.504;2023-03-14T07:07:03;6.80;;;1.70;;
52057;SDS011;38063;53.210;6.504;2023-03-14T07:09:29;8.63;;;1.73;;
52057;SDS011;38063;53.210;6.504;2023-03-14T07:11:55;7.22;;;1.25;;
52057;SDS011;38063;53.210;6.504;2023-03-14T07:14:20;17.52;;;1.30;;
52057;SDS011;38063;53.210;6.504;2023-03-14T07:16:46;5.72;;;1.10;;
52057;SDS011;38063;53.210;6.504;2023-03-14T07:19:12;6.75;;;1.00;;
52057;SDS011;38063;53.210;6.504;2023-03-14T07:21:37;9.35;;;0.85;;
52057;SDS011;38063;53.210;6.504;2023-03-14T07:24:03;4.53;;;0.60;;
52057;SDS011;38063;53.210;6.504;2023-03-14T07:26:30;2.45;;;0.70;;
52057;SDS011;38063;53.210;6.504;2023-03-14T07:28:55;2.70;;;0.63;;
52057;SDS011;38063;53.210;6.504;2023-03-14T07:31:21;5.03;;;0.90;;
52057;SDS011;38063;53.210;6.504;2023-03-14T07:33:47;6.65;;;0.80;;
52057;SDS011;38063;53.210;6.504;2023-03-14T07:36:13;5.68;;;1.00;;
52057;SDS011;38063;53.210;6.504;2023-03-14T07:38:38;1.45;;;0.45;;
52057;SDS011;38063;53.210;6.504;2023-03-14T07:41:05;9.00;;;0.93;;
52057;SDS011;38063;53.210;6.504;2023-03-14T07:43:31;5.35;;;0.60;;
52057;SDS011;38063;53.210;6.504;2023-03-14T07:45:57;3.72;;;0.82;;
52057;SDS011;38063;53.210;6.504;2023-03-14T07:48:23;5.65;;;0.55;;
52057;SDS011;38063;53.210;6.504;2023-03-14T07:50:53;3.35;;;0.68;;
52057;SDS011;38063;53.210;6.504;2023-03-14T07:53:20;6.78;;;0.63;;
52057;SDS011;38063;53.210;6.504;2023-03-14T07:55:46;6.53;;;0.98;;
52057;SDS011;38063;53.210;6.504;2023-03-14T07:58:12;2.63;;;0.73;;
52057;SDS011;38063;53.210;6.504;2023-03-14T08:00:39;3.60;;;0.90;;
52057;SDS011;38063;53.210;6.504;2023-03-14T08:03:04;2.10;;;0.45;;
52057;SDS011;38063;53.210;6.504;2023-03-14T08:05:30;6.72;;;0.80;;
52057;SDS011;38063;53.210;6.504;2023-03-14T08:07:58;3.63;;;0.82;;
52057;SDS011;38063;53.210;6.504;2023-03-14T08:10:24;3.75;;;0.80;;
52057;SDS011;38063;53.210;6.504;2023-03-14T08:12:50;6.32;;;1.27;;
52057;SDS011;38063;53.210;6.504;2023-03-14T08:15:18;4.18;;;1.00;;
52057;SDS011;38063;53.210;6.504;2023-03-14T08:17:44;6.07;;;0.90;;
52057;SDS011;38063;53.210;6.504;2023-03-14T08:20:10;7.68;;;1.40;;
52057;SDS011;38063;53.210;6.504;2023-03-14T08:22:37;6.50;;;0.90;;
52057;SDS011;38063;53.210;6.504;2023-03-14T08:25:03;8.35;;;1.40;;
52057;SDS011;38063;53.210;6.504;2023-03-14T08:27:29;6.10;;;1.15;;
52057;SDS011;38063;53.210;6.504;2023-03-14T08:29:55;6.03;;;1.00;;
52057;SDS011;38063;53.210;6.504;2023-03-14T08:32:20;10.55;;;2.05;;
52057;SDS011;38063;53.210;6.504;2023-03-14T08:34:48;9.88;;;1.40;;
52057;SDS011;38063;53.210;6.504;2023-03-14T08:37:14;12.77;;;1.67;;
52057;SDS011;38063;53.210;6.504;2023-03-14T08:39:40;8.23;;;1.80;;
52057;SDS011;38063;53.210;6.504;2023-03-14T08:42:05;11.13;;;1.58;;
52057;SDS011;38063;53.210;6.504;2023-03-14T08:44:31;11.98;;;2.17;;
52057;SDS011;38063;53.210;6.504;2023-03-14T08:46:57;13.57;;;2.00;;
52057;SDS011;38063;53.210;6.504;2023-03-14T08:49:22;12.93;;;2.03;;
52057;SDS011;38063;53.210;6.504;2023-03-14T08:51:48;11.88;;;1.95;;
52057;SDS011;38063;53.210;6.504;2023-03-14T08:54:14;13.70;;;2.25;;
52057;SDS011;38063;53.210;6.504;2023-03-14T08:56:39;18.05;;;2.58;;
52057;SDS011;38063;53.210;6.504;2023-03-14T08:59:05;15.70;;;2.70;;
52057;SDS011;38063;53.210;6.504;2023-03-14T09:01:31;23.60;;;3.45;;
52057;SDS011;38063;53.210;6.504;2023-03-14T09:03:57;23.13;;;2.75;;
52057;SDS011;38063;53.210;6.504;2023-03-14T09:06:24;14.85;;;2.90;;
52057;SDS011;38063;53.210;6.504;2023-03-14T09:08:50;19.90;;;2.13;;
52057;SDS011;38063;53.210;6.504;2023-03-14T09:11:15;18.50;;;2.47;;
52057;SDS011;38063;53.210;6.504;2023-03-14T09:13:42;22.75;;;3.45;;
52057;SDS011;38063;53.210;6.504;2023-03-14T09:16:08;20.73;;;4.10;;
52057;SDS011;38063;53.210;6.504;2023-03-14T09:18:34;20.23;;;3.22;;
52057;SDS011;38063;53.210;6.504;2023-03-14T09:21:00;24.33;;;2.92;;
52057;SDS011;38063;53.210;6.504;2023-03-14T09:23:26;18.35;;;2.70;;
52057;SDS011;38063;53.210;6.504;2023-03-14T09:25:56;20.50;;;3.40;;
52057;SDS011;38063;53.210;6.504;2023-03-14T09:28:24;18.88;;;2.63;;
52057;SDS011;38063;53.210;6.504;2023-03-14T09:30:51;25.02;;;2.78;;
52057;SDS011;38063;53.210;6.504;2023-03-14T09:33:17;17.73;;;2.78;;
52057;SDS011;38063;53.210;6.504;2023-03-14T09:35:43;16.00;;;2.92;;
52057;SDS011;38063;53.210;6.504;2023-03-14T09:38:08;25.08;;;3.97;;
52057;SDS011;38063;53.210;6.504;2023-03-14T09:40:35;16.95;;;3.10;;
52057;SDS011;38063;53.210;6.504;2023-03-14T09:43:02;16.55;;;2.85;;
52057;SDS011;38063;53.210;6.504;2023-03-14T09:45:29;18.55;;;2.65;;
52057;SDS011;38063;53.210;6.504;2023-03-14T09:47:59;16.05;;;2.63;;
52057;SDS011;38063;53.210;6.504;2023-03-14T09:50:30;14.25;;;2.45;;
52057;SDS011;38063;53.210;6.504;2023-03-14T09:53:03;14.33;;;2.50;;
52057;SDS011;38063;53.210;6.504;2023-03-14T09:55:34;16.80;;;2.58;;
52057;SDS011;38063;53.210;6.504;2023-03-14T09:58:00;15.13;;;2.30;;
52057;SDS011;38063;53.210;6.504;2023-03-14T10:00:33;18.73;;;2.30;;
52057;SDS011;38063;53.210;6.504;2023-03-14T10:05:46;16.30;;;2.05;;
52057;SDS011;38063;53.210;6.504;2023-03-14T10:08:12;23.05;;;2.97;;
52057;SDS011;38063;53.210;6.504;2023-03-14T10:10:39;16.88;;;2.75;;
52057;SDS011;38063;53.210;6.504;2023-03-14T10:13:21;18.23;;;3.17;;
52057;SDS011;38063;53.210;6.504;2023-03-14T10:15:59;19.17;;;2.97;;
52057;SDS011;38063;53.210;6.504;2023-03-14T10:18:28;24.88;;;2.80;;
52057;SDS011;38063;53.210;6.504;2023-03-14T10:21:17;16.92;;;2.03;;
52057;SDS011;38063;53.210;6.504;2023-03-14T10:23:50;18.58;;;3.47;;
52057;SDS011;38063;53.210;6.504;2023-03-14T10:26:16;15.50;;;2.30;;
52057;SDS011;38063;53.210;6.504;2023-03-14T10:28:45;17.60;;;2.67;;
52057;SDS011;38063;53.210;6.504;2023-03-14T10:31:18;12.48;;;2.05;;
52057;SDS011;38063;53.210;6.504;2023-03-14T10:33:58;9.65;;;2.17;;
52057;SDS011;38063;53.210;6.504;2023-03-14T10:36:27;12.57;;;2.77;;
52057;SDS011;38063;53.210;6.504;2023-03-14T10:39:15;11.82;;;1.90;;
52057;SDS011;38063;53.210;6.504;2023-03-14T10:41:53;13.02;;;1.88;;
52057;SDS011;38063;53.210;6.504;2023-03-14T10:44:26;12.32;;;2.00;;
52057;SDS011;38063;53.210;6.504;2023-03-14T10:47:00;11.93;;;2.45;;
52057;SDS011;38063;53.210;6.504;2023-03-14T10:49:32;10.30;;;2.15;;
52057;SDS011;38063;53.210;6.504;2023-03-14T10:52:12;10.38;;;1.90;;
52057;SDS011;38063;53.210;6.504;2023-03-14T10:54:38;12.27;;;2.17;;
52057;SDS011;38063;53.210;6.504;2023-03-14T10:57:04;11.30;;;1.60;;
52057;SDS011;38063;53.210;6.504;2023-03-14T10:59:37;15.23;;;1.85;;
52057;SDS011;38063;53.210;6.504;2023-03-14T11:07:49;9.85;;;1.48;;
52057;SDS011;38063;53.210;6.504;2023-03-14T11:10:28;7.00;;;1.42;;
52057;SDS011;38063;53.210;6.504;2023-03-14T11:15:36;10.43;;;1.90;;
52057;SDS011;38063;53.210;6.504;2023-03-14T11:26:29;7.28;;;1.17;;
52057;SDS011;38063;53.210;6.504;2023-03-14T11:29:19;8.07;;;1.17;;
52057;SDS011;38063;53.210;6.504;2023-03-14T11:31:48;11.45;;;1.65;;
52057;SDS011;38063;53.210;6.504;2023-03-14T11:34:19;4.18;;;1.27;;
52057;SDS011;38063;53.210;6.504;2023-03-14T11:39:20;6.50;;;1.90;;
52057;SDS011;38063;53.210;6.504;2023-03-14T11:41:49;6.53;;;1.13;;
52057;SDS011;38063;53.210;6.504;2023-03-14T11:44:30;4.35;;;1.08;;
52057;SDS011;38063;53.210;6.504;2023-03-14T11:47:06;6.55;;;2.00;;
52057;SDS011;38063;53.210;6.504;2023-03-14T11:49:40;3.80;;;1.05;;
52057;SDS011;38063;53.210;6.504;2023-03-14T11:55:12;7.55;;;1.48;;
52057;SDS011;38063;53.210;6.504;2023-03-14T11:57:55;7.95;;;1.40;;
52057;SDS011;38063;53.210;6.504;2023-03-14T12:00:25;7.63;;;1.50;;
52057;SDS011;38063;53.210;6.504;2023-03-14T12:03:11;6.15;;;1.40;;
52057;SDS011;38063;53.210;6.504;2023-03-14T12:05:54;5.95;;;1.73;;
52057;SDS011;38063;53.210;6.504;2023-03-14T12:11:15;11.30;;;1.90;;
52057;SDS011;38063;53.210;6.504;2023-03-14T12:13:48;3.97;;;0.98;;
52057;SDS011;38063;53.210;6.504;2023-03-14T12:16:23;5.53;;;1.40;;
52057;SDS011;38063;53.210;6.504;2023-03-14T12:18:51;11.95;;;1.98;;
52057;SDS011;38063;53.210;6.504;2023-03-14T12:21:17;11.35;;;1.50;;
52057;SDS011;38063;53.210;6.504;2023-03-14T12:23:53;7.97;;;1.95;;
52057;SDS011;38063;53.210;6.504;2023-03-14T12:26:25;9.65;;;1.45;;
52057;SDS011;38063;53.210;6.504;2023-03-14T12:47:53;9.43;;;1.92;;
52057;SDS011;38063;53.210;6.504;2023-03-14T12:50:24;11.90;;;1.60;;
52057;SDS011;38063;53.210;6.504;2023-03-14T12:53:07;9.80;;;2.00;;
52057;SDS011;38063;53.210;6.504;2023-03-14T12:56:09;8.20;;;1.50;;
52057;SDS011;38063;53.210;6.504;2023-03-14T13:04:42;5.93;;;1.15;;
52057;SDS011;38063;53.210;6.504;2023-03-14T13:07:28;7.57;;;1.40;;
52057;SDS011;38063;53.210;6.504;2023-03-14T13:17:59;7.45;;;2.30;;
52057;SDS011;38063;53.210;6.504;2023-03-14T13:20:51;8.13;;;1.42;;
52057;SDS011;38063;53.210;6.504;2023-03-14T13:23:23;8.93;;;1.80;;
52057;SDS011;38063;53.210;6.504;2023-03-14T13:25:53;6.35;;;1.23;;
52057;SDS011;38063;53.210;6.504;2023-03-14T13:28:20;6.30;;;1.30;;
52057;SDS011;38063;53.210;6.504;2023-03-14T13:30:46;10.18;;;1.27;;
52057;SDS011;38063;53.210;6.504;2023-03-14T13:33:15;5.65;;;1.20;;
52057;SDS011;38063;53.210;6.504;2023-03-14T13:35:53;14.15;;;1.65;;
52057;SDS011;38063;53.210;6.504;2023-03-14T13:38:25;10.25;;;2.08;;
52057;SDS011;38063;53.210;6.504;2023-03-14T13:40:53;7.18;;;1.17;;
52057;SDS011;38063;53.210;6.504;2023-03-14T13:48:26;6.45;;;1.50;;
52057;SDS011;38063;53.210;6.504;2023-03-14T13:50:55;7.80;;;1.60;;
52057;SDS011;38063;53.210;6.504;2023-03-14T13:53:32;8.63;;;1.95;;
52057;SDS011;38063;53.210;6.504;2023-03-14T13:56:10;9.13;;;1.58;;
52057;SDS011;38063;53.210;6.504;2023-03-14T13:58:36;11.68;;;1.52;;
52057;SDS011;38063;53.210;6.504;2023-03-14T14:03:36;9.45;;;1.30;;
52057;SDS011;38063;53.210;6.504;2023-03-14T14:06:04;10.32;;;1.48;;
52057;SDS011;38063;53.210;6.504;2023-03-14T14:08:34;7.32;;;1.70;;
52057;SDS011;38063;53.210;6.504;2023-03-14T14:11:00;9.38;;;1.52;;
52057;SDS011;38063;53.210;6.504;2023-03-14T14:13:27;4.78;;;0.93;;
52057;SDS011;38063;53.210;6.504;2023-03-14T14:15:56;7.10;;;1.20;;
52057;SDS011;38063;53.210;6.504;2023-03-14T14:18:25;4.28;;;1.10;;
52057;SDS011;38063;53.210;6.504;2023-03-14T14:20:53;10.15;;;1.30;;
52057;SDS011;38063;53.210;6.504;2023-03-14T14:23:20;8.70;;;1.30;;
52057;SDS011;38063;53.210;6.504;2023-03-14T14:25:50;7.13;;;1.30;;
52057;SDS011;38063;53.210;6.504;2023-03-14T14:28:31;6.38;;;1.15;;
52057;SDS011;38063;53.210;6.504;2023-03-14T14:33:43;9.32;;;1.60;;
52057;SDS011;38063;53.210;6.504;2023-03-14T14:36:21;10.05;;;1.80;;
52057;SDS011;38063;53.210;6.504;2023-03-14T14:38:50;8.07;;;1.50;;
52057;SDS011;38063;53.210;6.504;2023-03-14T14:41:17;9.30;;;2.10;;
52057;SDS011;38063;53.210;6.504;2023-03-14T14:43:42;5.28;;;1.30;;
52057;SDS011;38063;53.210;6.504;2023-03-14T14:46:08;8.65;;;1.38;;
52057;SDS011;38063;53.210;6.504;2023-03-14T14:48:41;10.75;;;2.13;;
52057;SDS011;38063;53.210;6.504;2023-03-14T14:51:07;6.95;;;1.55;;
52057;SDS011;38063;53.210;6.504;2023-03-14T14:53:37;10.18;;;1.30;;
52057;SDS011;38063;53.210;6.504;2023-03-14T14:58:43;8.10;;;1.35;;
52057;SDS011;38063;53.210;6.504;2023-03-14T15:03:41;3.78;;;1.20;;
52057;SDS011;38063;53.210;6.504;2023-03-14T15:06:08;5.95;;;1.50;;
52057;SDS011;38063;53.210;6.504;2023-03-14T15:08:35;8.65;;;1.58;;
52057;SDS011;38063;53.210;6.504;2023-03-14T15:11:02;7.35;;;1.65;;
52057;SDS011;38063;53.210;6.504;2023-03-14T15:13:28;3.97;;;1.00;;
52057;SDS011;38063;53.210;6.504;2023-03-14T15:15:53;7.00;;;1.58;;
52057;SDS011;38063;53.210;6.504;2023-03-14T15:18:23;7.15;;;1.23;;
52057;SDS011;38063;53.210;6.504;2023-03-14T15:20:50;8.43;;;1.50;;
52057;SDS011;38063;53.210;6.504;2023-03-14T15:23:17;7.38;;;1.58;;
52057;SDS011;38063;53.210;6.504;2023-03-14T15:25:47;10.20;;;1.95;;
52057;SDS011;38063;53.210;6.504;2023-03-14T15:28:21;6.20;;;1.33;;
52057;SDS011;38063;53.210;6.504;2023-03-14T15:30:48;7.20;;;1.73;;
52057;SDS011;38063;53.210;6.504;2023-03-14T15:33:15;15.70;;;2.08;;
52057;SDS011;38063;53.210;6.504;2023-03-14T15:35:41;8.30;;;1.65;;
52057;SDS011;38063;53.210;6.504;2023-03-14T15:38:11;9.57;;;1.58;;
52057;SDS011;38063;53.210;6.504;2023-03-14T15:40:38;7.47;;;1.80;;
52057;SDS011;38063;53.210;6.504;2023-03-14T15:43:04;11.95;;;1.45;;
52057;SDS011;38063;53.210;6.504;2023-03-14T15:45:30;10.68;;;2.10;;
52057;SDS011;38063;53.210;6.504;2023-03-14T15:47:56;8.02;;;1.60;;
52057;SDS011;38063;53.210;6.504;2023-03-14T15:50:22;10.70;;;1.70;;
52057;SDS011;38063;53.210;6.504;2023-03-14T15:52:48;7.07;;;1.50;;
52057;SDS011;38063;53.210;6.504;2023-03-14T15:55:13;7.53;;;1.88;;
52057;SDS011;38063;53.210;6.504;2023-03-14T15:57:40;10.80;;;2.08;;
52057;SDS011;38063;53.210;6.504;2023-03-14T16:00:09;13.63;;;1.90;;
52057;SDS011;38063;53.210;6.504;2023-03-14T16:02:38;4.82;;;1.30;;
52057;SDS011;38063;53.210;6.504;2023-03-14T16:05:06;5.75;;;1.33;;
52057;SDS011;38063;53.210;6.504;2023-03-14T16:07:35;9.88;;;1.45;;
52057;SDS011;38063;53.210;6.504;2023-03-14T16:10:00;12.43;;;1.75;;
52057;SDS011;38063;53.210;6.504;2023-03-14T16:12:27;5.55;;;1.30;;